sensor_id;sensor_type;location;lat;lon;timestamp;pressure;altitude;pressure_sealevel;temperature;humidity
59877;BME280;45749;51.140;17.184;2022-09-17T00:00:49;99005.62;;;9.91;86.05
59877;BME280;45749;51.140;17.184;2022-09-17T00:03:17;99003.53;;;9.85;86.44
59877;BME280;45749;51.140;17.184;2022-09-17T00:05:43;98998.05;;;9.82;86.58
59877;BME280;45749;51.140;17.184;2022-09-17T00:08:11;99002.98;;;9.81;86.65
59877;BME280;45749;51.140;17.184;2022-09-17T00:10:41;99003.47;;;9.81;86.70
59877;BME280;45749;51.140;17.184;2022-09-17T00:13:08;99001.17;;;9.82;86.90
59877;BME280;45749;51.140;17.184;2022-09-17T00:15:43;99000.47;;;9.80;86.57
59877;BME280;45749;51.140;17.184;2022-09-17T00:18:11;99004.84;;;9.75;86.62
59877;BME280;45749;51.140;17.184;2022-09-17T00:20:44;99004.02;;;9.75;86.63
59877;BME280;45749;51.140;17.184;2022-09-17T00:23:11;99002.48;;;9.72;86.67
59877;BME280;45749;51.140;17.184;2022-09-17T00:25:42;98995.56;;;9.71;86.79
59877;BME280;45749;51.140;17.184;2022-09-17T00:28:14;98992.72;;;9.69;86.65
59877;BME280;45749;51.140;17.184;2022-09-17T00:30:40;98997.00;;;9.70;86.86
59877;BME280;45749;51.140;17.184;2022-09-17T00:33:09;98997.00;;;9.70;87.02
59877;BME280;45749;51.140;17.184;2022-09-17T00:35:36;98990.30;;;9.71;86.81
59877;BME280;45749;51.140;17.184;2022-09-17T00:38:02;98991.61;;;9.71;86.81
59877;BME280;45749;51.140;17.184;2022-09-17T00:40:29;98990.02;;;9.74;87.01
59877;BME280;45749;51.140;17.184;2022-09-17T00:42:55;98983.50;;;9.78;87.09
59877;BME280;45749;51.140;17.184;2022-09-17T00:45:21;98986.35;;;9.81;87.27
59877;BME280;45749;51.140;17.184;2022-09-17T00:47:55;98987.84;;;9.83;87.25
59877;BME280;45749;51.140;17.184;2022-09-17T00:53:06;98985.70;;;9.83;86.89
59877;BME280;45749;51.140;17.184;2022-09-17T00:55:40;98988.62;;;9.80;86.55
59877;BME280;45749;51.140;17.184;2022-09-17T00:58:10;98984.81;;;9.78;86.53
59877;BME280;45749;51.140;17.184;2022-09-17T01:00:38;98984.33;;;9.79;86.50
59877;BME280;45749;51.140;17.184;2022-09-17T01:03:04;98982.86;;;9.80;86.56
59877;BME280;45749;51.140;17.184;2022-09-17T01:20:10;98971.43;;;9.66;86.55
59877;BME280;45749;51.140;17.184;2022-09-17T01:26:33;98970.94;;;9.57;86.71
59877;BME280;45749;51.140;17.184;2022-09-17T01:32:29;98967.25;;;9.44;86.89
59877;BME280;45749;51.140;17.184;2022-09-17T01:35:08;98965.37;;;9.40;87.19
59877;BME280;45749;51.140;17.184;2022-09-17T01:38:06;98964.21;;;9.39;87.15
59877;BME280;45749;51.140;17.184;2022-09-17T01:40:49;98961.70;;;9.37;87.16
59877;BME280;45749;51.140;17.184;2022-09-17T01:43:35;98964.75;;;9.33;87.03
59877;BME280;45749;51.140;17.184;2022-09-17T01:48:46;98973.23;;;9.21;87.24
59877;BME280;45749;51.140;17.184;2022-09-17T01:51:16;98972.41;;;9.21;87.42
59877;BME280;45749;51.140;17.184;2022-09-17T01:54:06;98974.55;;;9.21;87.47
59877;BME280;45749;51.140;17.184;2022-09-17T01:56:50;98977.19;;;9.21;87.67
59877;BME280;45749;51.140;17.184;2022-09-17T02:01:59;98962.71;;;9.21;87.71
59877;BME280;45749;51.140;17.184;2022-09-17T02:07:16;98962.59;;;9.23;87.83
59877;BME280;45749;51.140;17.184;2022-09-17T02:10:10;98958.98;;;9.24;88.08
59877;BME280;45749;51.140;17.184;2022-09-17T02:12:40;98962.11;;;9.23;87.98
59877;BME280;45749;51.140;17.184;2022-09-17T02:15:16;98967.52;;;9.22;87.88
59877;BME280;45749;51.140;17.184;2022-09-17T02:17:47;98968.95;;;9.20;88.06
59877;BME280;45749;51.140;17.184;2022-09-17T02:20:15;98973.88;;;9.19;88.07
59877;BME280;45749;51.140;17.184;2022-09-17T02:22:49;98976.62;;;9.18;88.25
59877;BME280;45749;51.140;17.184;2022-09-17T02:30:25;98967.91;;;9.17;88.63
59877;BME280;45749;51.140;17.184;2022-09-17T02:32:53;98956.55;;;9.16;88.75
59877;BME280;45749;51.140;17.184;2022-09-17T02:35:19;98960.98;;;9.16;88.60
59877;BME280;45749;51.140;17.184;2022-09-17T02:37:46;98969.00;;;9.14;88.74
59877;BME280;45749;51.140;17.184;2022-09-17T02:40:14;98963.28;;;9.15;88.92
59877;BME280;45749;51.140;17.184;2022-09-17T02:43:07;98958.36;;;9.16;88.95
59877;BME280;45749;51.140;17.184;2022-09-17T02:46:10;98959.34;;;9.15;89.07
59877;BME280;45749;51.140;17.184;2022-09-17T02:51:52;98957.46;;;9.11;89.30
59877;BME280;45749;51.140;17.184;2022-09-17T03:02:42;98944.70;;;9.16;89.73
59877;BME280;45749;51.140;17.184;2022-09-17T03:05:14;98943.46;;;9.21;90.08
59877;BME280;45749;51.140;17.184;2022-09-17T03:07:42;98941.53;;;9.23;90.02
59877;BME280;45749;51.140;17.184;2022-09-17T03:10:08;98939.13;;;9.25;90.22
59877;BME280;45749;51.140;17.184;2022-09-17T03:12:35;98946.26;;;9.29;90.27
59877;BME280;45749;51.140;17.184;2022-09-17T03:15:01;98943.84;;;9.31;90.33
59877;BME280;45749;51.140;17.184;2022-09-17T03:17:29;98943.91;;;9.35;90.27
59877;BME280;45749;51.140;17.184;2022-09-17T03:19:55;98946.12;;;9.40;90.39
59877;BME280;45749;51.140;17.184;2022-09-17T03:22:21;98940.45;;;9.45;90.35
59877;BME280;45749;51.140;17.184;2022-09-17T03:24:47;98946.12;;;9.50;90.45
59877;BME280;45749;51.140;17.184;2022-09-17T03:27:13;98941.91;;;9.53;90.25
59877;BME280;45749;51.140;17.184;2022-09-17T03:29:38;98941.47;;;9.57;90.29
59877;BME280;45749;51.140;17.184;2022-09-17T03:32:05;98941.69;;;9.60;90.30
59877;BME280;45749;51.140;17.184;2022-09-17T03:34:31;98938.66;;;9.65;90.54
59877;BME280;45749;51.140;17.184;2022-09-17T03:36:57;98946.74;;;9.67;90.34
59877;BME280;45749;51.140;17.184;2022-09-17T03:39:23;98947.33;;;9.71;90.22
59877;BME280;45749;51.140;17.184;2022-09-17T03:41:49;98945.58;;;9.75;90.31
59877;BME280;45749;51.140;17.184;2022-09-17T03:44:16;98946.83;;;9.81;90.41
59877;BME280;45749;51.140;17.184;2022-09-17T03:46:44;98952.65;;;9.84;90.63
59877;BME280;45749;51.140;17.184;2022-09-17T03:49:10;98944.47;;;9.88;90.67
59877;BME280;45749;51.140;17.184;2022-09-17T03:51:36;98952.92;;;9.91;90.77
59877;BME280;45749;51.140;17.184;2022-09-17T03:54:02;98947.00;;;9.93;90.50
59877;BME280;45749;51.140;17.184;2022-09-17T03:56:28;98950.67;;;9.96;90.69
59877;BME280;45749;51.140;17.184;2022-09-17T03:58:58;98947.27;;;10.00;90.69
59877;BME280;45749;51.140;17.184;2022-09-17T04:01:25;98946.04;;;10.04;90.71
59877;BME280;45749;51.140;17.184;2022-09-17T04:03:52;98944.91;;;10.06;90.72
59877;BME280;45749;51.140;17.184;2022-09-17T04:06:18;98950.54;;;10.07;90.67
59877;BME280;45749;51.140;17.184;2022-09-17T04:08:45;98935.77;;;10.10;90.58
59877;BME280;45749;51.140;17.184;2022-09-17T04:11:11;98943.84;;;10.13;90.71
59877;BME280;45749;51.140;17.184;2022-09-17T04:13:37;98939.61;;;10.16;90.56
59877;BME280;45749;51.140;17.184;2022-09-17T04:16:03;98940.80;;;10.18;90.53
59877;BME280;45749;51.140;17.184;2022-09-17T04:18:29;98937.39;;;10.21;90.29
59877;BME280;45749;51.140;17.184;2022-09-17T04:20:55;98934.14;;;10.23;90.44
59877;BME280;45749;51.140;17.184;2022-09-17T04:23:21;98939.13;;;10.26;90.35
59877;BME280;45749;51.140;17.184;2022-09-17T04:25:47;98935.88;;;10.28;90.33
59877;BME280;45749;51.140;17.184;2022-09-17T04:28:13;98934.43;;;10.30;90.16
59877;BME280;45749;51.140;17.184;2022-09-17T04:30:40;98938.23;;;10.31;90.17
59877;BME280;45749;51.140;17.184;2022-09-17T04:33:07;98944.66;;;10.33;90.07
59877;BME280;45749;51.140;17.184;2022-09-17T04:35:35;98941.90;;;10.35;90.19
59877;BME280;45749;51.140;17.184;2022-09-17T04:38:01;98939.95;;;10.37;90.21
59877;BME280;45749;51.140;17.184;2022-09-17T04:40:27;98935.02;;;10.38;89.97
59877;BME280;45749;51.140;17.184;2022-09-17T04:42:58;98933.91;;;10.40;89.94
59877;BME280;45749;51.140;17.184;2022-09-17T04:45:26;98940.67;;;10.43;89.91
59877;BME280;45749;51.140;17.184;2022-09-17T04:47:52;98939.56;;;10.45;89.98
59877;BME280;45749;51.140;17.184;2022-09-17T04:50:22;98943.39;;;10.47;89.94
59877;BME280;45749;51.140;17.184;2022-09-17T04:52:47;98954.61;;;10.49;89.97
59877;BME280;45749;51.140;17.184;2022-09-17T04:55:14;98950.52;;;10.50;90.01
59877;BME280;45749;51.140;17.184;2022-09-17T04:57:49;98945.25;;;10.50;90.32
59877;BME280;45749;51.140;17.184;2022-09-17T05:00:16;98957.78;;;10.52;90.46
59877;BME280;45749;51.140;17.184;2022-09-17T05:02:45;98960.42;;;10.52;90.54
59877;BME280;45749;51.140;17.184;2022-09-17T05:05:13;98958.98;;;10.54;90.53
59877;BME280;45749;51.140;17.184;2022-09-17T05:07:39;98958.81;;;10.55;90.86
59877;BME280;45749;51.140;17.184;2022-09-17T05:10:07;98968.88;;;10.56;90.63
59877;BME280;45749;51.140;17.184;2022-09-17T05:12:34;98955.07;;;10.58;90.71
59877;BME280;45749;51.140;17.184;2022-09-17T05:15:00;98956.26;;;10.60;90.73
59877;BME280;45749;51.140;17.184;2022-09-17T05:17:26;98960.55;;;10.61;90.67
59877;BME280;45749;51.140;17.184;2022-09-17T05:19:52;98959.89;;;10.63;90.64
59877;BME280;45749;51.140;17.184;2022-09-17T05:22:18;98949.22;;;10.64;90.64
59877;BME280;45749;51.140;17.184;2022-09-17T05:24:45;98951.56;;;10.67;90.97
59877;BME280;45749;51.140;17.184;2022-09-17T05:27:12;98943.00;;;10.69;90.93
59877;BME280;45749;51.140;17.184;2022-09-17T05:29:37;98946.83;;;10.71;90.74
59877;BME280;45749;51.140;17.184;2022-09-17T05:32:04;98947.98;;;10.72;90.98
59877;BME280;45749;51.140;17.184;2022-09-17T05:34:31;98946.67;;;10.72;90.80
59877;BME280;45749;51.140;17.184;2022-09-17T05:36:57;98948.19;;;10.75;90.82
59877;BME280;45749;51.140;17.184;2022-09-17T05:39:23;98949.87;;;10.76;90.71
59877;BME280;45749;51.140;17.184;2022-09-17T05:41:53;98950.88;;;10.79;90.69
59877;BME280;45749;51.140;17.184;2022-09-17T05:44:20;98951.90;;;10.82;90.77
59877;BME280;45749;51.140;17.184;2022-09-17T05:46:46;98948.14;;;10.85;90.78
59877;BME280;45749;51.140;17.184;2022-09-17T05:49:13;98953.96;;;10.88;90.71
59877;BME280;45749;51.140;17.184;2022-09-17T05:51:40;98950.53;;;10.92;90.66
59877;BME280;45749;51.140;17.184;2022-09-17T05:54:06;98949.09;;;10.93;90.75
59877;BME280;45749;51.140;17.184;2022-09-17T05:56:33;98951.92;;;10.96;90.76
59877;BME280;45749;51.140;17.184;2022-09-17T05:58:59;98948.63;;;10.98;90.75
59877;BME280;45749;51.140;17.184;2022-09-17T06:01:25;98949.66;;;11.01;90.83
59877;BME280;45749;51.140;17.184;2022-09-17T06:03:51;98942.07;;;11.02;90.81
59877;BME280;45749;51.140;17.184;2022-09-17T06:06:18;98954.64;;;11.04;90.82
59877;BME280;45749;51.140;17.184;2022-09-17T06:08:44;98951.22;;;11.08;90.92
59877;BME280;45749;51.140;17.184;2022-09-17T06:11:10;98955.38;;;11.10;90.84
59877;BME280;45749;51.140;17.184;2022-09-17T06:13:36;98949.80;;;11.13;90.96
59877;BME280;45749;51.140;17.184;2022-09-17T06:16:02;98957.77;;;11.17;90.98
59877;BME280;45749;51.140;17.184;2022-09-17T06:18:29;98952.81;;;11.18;91.03
59877;BME280;45749;51.140;17.184;2022-09-17T06:20:58;98953.17;;;11.19;90.92
59877;BME280;45749;51.140;17.184;2022-09-17T06:23:26;98960.64;;;11.24;91.07
59877;BME280;45749;51.140;17.184;2022-09-17T06:25:57;98961.33;;;11.26;90.89
59877;BME280;45749;51.140;17.184;2022-09-17T06:28:25;98967.14;;;11.30;90.83
59877;BME280;45749;51.140;17.184;2022-09-17T06:30:52;98966.02;;;11.32;91.35
59877;BME280;45749;51.140;17.184;2022-09-17T06:33:22;98963.22;;;11.34;91.26
59877;BME280;45749;51.140;17.184;2022-09-17T06:36:01;98966.55;;;11.36;91.29
59877;BME280;45749;51.140;17.184;2022-09-17T06:38:26;98972.16;;;11.37;91.06
59877;BME280;45749;51.140;17.184;2022-09-17T06:40:52;98983.75;;;11.40;91.05
59877;BME280;45749;51.140;17.184;2022-09-17T06:43:19;98980.13;;;11.41;91.43
59877;BME280;45749;51.140;17.184;2022-09-17T06:45:53;98991.52;;;11.41;91.79
59877;BME280;45749;51.140;17.184;2022-09-17T06:48:21;98994.66;;;11.41;92.15
59877;BME280;45749;51.140;17.184;2022-09-17T06:50:50;98995.31;;;11.39;92.02
59877;BME280;45749;51.140;17.184;2022-09-17T06:53:18;99000.59;;;11.39;92.32
59877;BME280;45749;51.140;17.184;2022-09-17T06:55:44;98993.49;;;11.39;92.25
59877;BME280;45749;51.140;17.184;2022-09-17T06:58:10;98996.47;;;11.40;92.20
59877;BME280;45749;51.140;17.184;2022-09-17T07:00:36;99001.75;;;11.40;92.03
59877;BME280;45749;51.140;17.184;2022-09-17T07:03:02;99002.94;;;11.42;92.34
59877;BME280;45749;51.140;17.184;2022-09-17T07:05:29;99005.61;;;11.46;92.65
59877;BME280;45749;51.140;17.184;2022-09-17T07:08:02;99004.49;;;11.48;92.61
59877;BME280;45749;51.140;17.184;2022-09-17T07:10:29;99009.12;;;11.50;92.13
59877;BME280;45749;51.140;17.184;2022-09-17T07:12:55;99004.16;;;11.51;92.07
59877;BME280;45749;51.140;17.184;2022-09-17T07:15:21;99001.23;;;11.55;92.14
59877;BME280;45749;51.140;17.184;2022-09-17T07:17:48;99010.53;;;11.59;91.97
59877;BME280;45749;51.140;17.184;2022-09-17T07:20:14;99004.09;;;11.61;91.83
59877;BME280;45749;51.140;17.184;2022-09-17T07:22:40;99000.70;;;11.65;91.61
59877;BME280;45749;51.140;17.184;2022-09-17T07:25:07;98995.58;;;11.67;91.68
59877;BME280;45749;51.140;17.184;2022-09-17T07:27:33;98997.42;;;11.71;91.34
59877;BME280;45749;51.140;17.184;2022-09-17T07:29:59;98993.02;;;11.76;91.91
59877;BME280;45749;51.140;17.184;2022-09-17T07:32:28;98993.69;;;11.78;91.77
59877;BME280;45749;51.140;17.184;2022-09-17T07:34:55;99001.31;;;11.81;91.57
59877;BME280;45749;51.140;17.184;2022-09-17T07:37:21;99001.87;;;11.84;91.58
59877;BME280;45749;51.140;17.184;2022-09-17T07:39:47;99000.25;;;11.87;91.44
59877;BME280;45749;51.140;17.184;2022-09-17T07:42:13;99012.66;;;11.91;91.55
59877;BME280;45749;51.140;17.184;2022-09-17T07:44:39;99018.15;;;11.93;91.64
59877;BME280;45749;51.140;17.184;2022-09-17T07:47:05;99029.25;;;11.97;91.90
59877;BME280;45749;51.140;17.184;2022-09-17T07:49:31;99027.81;;;12.03;91.57
59877;BME280;45749;51.140;17.184;2022-09-17T07:51:57;99044.20;;;12.06;91.36
59877;BME280;45749;51.140;17.184;2022-09-17T07:54:24;99040.56;;;12.07;90.66
59877;BME280;45749;51.140;17.184;2022-09-17T07:56:51;99041.59;;;12.10;90.89
59877;BME280;45749;51.140;17.184;2022-09-17T07:59:17;99041.95;;;12.11;90.54
59877;BME280;45749;51.140;17.184;2022-09-17T08:01:44;99038.64;;;12.13;90.81
59877;BME280;45749;51.140;17.184;2022-09-17T08:04:10;99040.16;;;12.16;90.87
59877;BME280;45749;51.140;17.184;2022-09-17T08:06:37;99038.70;;;12.17;90.80
59877;BME280;45749;51.140;17.184;2022-09-17T08:09:05;99036.71;;;12.19;91.12
59877;BME280;45749;51.140;17.184;2022-09-17T08:11:35;99045.66;;;12.23;90.92
59877;BME280;45749;51.140;17.184;2022-09-17T08:14:02;99041.06;;;12.25;91.13
59877;BME280;45749;51.140;17.184;2022-09-17T08:16:29;99037.12;;;12.29;91.34
59877;BME280;45749;51.140;17.184;2022-09-17T08:18:56;99034.17;;;12.32;90.79
59877;BME280;45749;51.140;17.184;2022-09-17T08:21:23;99036.84;;;12.36;91.15
59877;BME280;45749;51.140;17.184;2022-09-17T08:23:49;99036.20;;;12.38;90.95
59877;BME280;45749;51.140;17.184;2022-09-17T08:26:20;99026.64;;;12.41;90.65
59877;BME280;45749;51.140;17.184;2022-09-17T08:28:52;99037.22;;;12.41;90.30
59877;BME280;45749;51.140;17.184;2022-09-17T08:31:21;99038.70;;;12.43;90.84
59877;BME280;45749;51.140;17.184;2022-09-17T08:33:48;99032.64;;;12.47;90.57
59877;BME280;45749;51.140;17.184;2022-09-17T08:36:17;99034.95;;;12.50;90.83
59877;BME280;45749;51.140;17.184;2022-09-17T08:38:44;99030.67;;;12.53;90.54
59877;BME280;45749;51.140;17.184;2022-09-17T08:46:38;99036.22;;;12.64;90.52
59877;BME280;45749;51.140;17.184;2022-09-17T09:00:22;99021.20;;;12.73;89.76
59877;BME280;45749;51.140;17.184;2022-09-17T09:03:19;99030.82;;;12.74;90.30
59877;BME280;45749;51.140;17.184;2022-09-17T09:05:50;99028.19;;;12.78;90.11
59877;BME280;45749;51.140;17.184;2022-09-17T09:11:20;99032.36;;;12.84;90.68
59877;BME280;45749;51.140;17.184;2022-09-17T09:13:49;99029.72;;;12.84;89.57
59877;BME280;45749;51.140;17.184;2022-09-17T09:16:36;99037.48;;;12.86;89.89
59877;BME280;45749;51.140;17.184;2022-09-17T09:24:44;99044.79;;;12.88;90.10
59877;BME280;45749;51.140;17.184;2022-09-17T09:27:46;99045.80;;;12.91;89.91
59877;BME280;45749;51.140;17.184;2022-09-17T09:30:34;99047.95;;;12.91;89.92
59877;BME280;45749;51.140;17.184;2022-09-17T09:33:14;99061.88;;;12.94;89.85
59877;BME280;45749;51.140;17.184;2022-09-17T09:35:43;99077.91;;;12.96;89.94
59877;BME280;45749;51.140;17.184;2022-09-17T09:41:15;99078.10;;;12.99;89.76
59877;BME280;45749;51.140;17.184;2022-09-17T09:43:45;99093.02;;;13.00;89.06
59877;BME280;45749;51.140;17.184;2022-09-17T09:57:08;99096.03;;;13.09;89.40
59877;BME280;45749;51.140;17.184;2022-09-17T09:59:36;99107.80;;;13.10;89.28
59877;BME280;45749;51.140;17.184;2022-09-17T10:02:02;99103.15;;;13.08;88.83
59877;BME280;45749;51.140;17.184;2022-09-17T10:04:29;99101.50;;;13.07;89.09
59877;BME280;45749;51.140;17.184;2022-09-17T10:07:02;99097.02;;;13.08;89.44
59877;BME280;45749;51.140;17.184;2022-09-17T10:09:34;99106.81;;;13.11;89.18
59877;BME280;45749;51.140;17.184;2022-09-17T10:14:44;99095.41;;;13.15;88.87
59877;BME280;45749;51.140;17.184;2022-09-17T10:17:23;99091.30;;;13.17;89.01
59877;BME280;45749;51.140;17.184;2022-09-17T10:22:41;99096.93;;;13.22;89.36
59877;BME280;45749;51.140;17.184;2022-09-17T10:25:30;99096.83;;;13.27;89.66
59877;BME280;45749;51.140;17.184;2022-09-17T10:27:58;99095.02;;;13.32;89.64
59877;BME280;45749;51.140;17.184;2022-09-17T10:30:27;99084.11;;;13.39;89.38
59877;BME280;45749;51.140;17.184;2022-09-17T10:33:18;99077.53;;;13.43;89.04
59877;BME280;45749;51.140;17.184;2022-09-17T10:36:15;99088.14;;;13.47;88.48
59877;BME280;45749;51.140;17.184;2022-09-17T10:38:35;99094.77;;;13.51;88.43
59877;BME280;45749;51.140;17.184;2022-09-17T10:43:50;99089.34;;;13.61;89.24
59877;BME280;45749;51.140;17.184;2022-09-17T10:46:28;99094.17;;;13.66;88.43
59877;BME280;45749;51.140;17.184;2022-09-17T10:48:58;99102.45;;;13.67;88.11
59877;BME280;45749;51.140;17.184;2022-09-17T10:51:32;99102.45;;;13.67;87.98
59877;BME280;45749;51.140;17.184;2022-09-17T10:56:41;99103.41;;;13.61;87.83
59877;BME280;45749;51.140;17.184;2022-09-17T11:10:56;99097.55;;;13.46;87.77
59877;BME280;45749;51.140;17.184;2022-09-17T11:13:30;99093.44;;;13.47;88.38
59877;BME280;45749;51.140;17.184;2022-09-17T11:16:03;99091.94;;;13.49;88.20
59877;BME280;45749;51.140;17.184;2022-09-17T11:18:45;99086.50;;;13.50;88.34
59877;BME280;45749;51.140;17.184;2022-09-17T11:21:39;99077.73;;;13.58;88.78
59877;BME280;45749;51.140;17.184;2022-09-17T11:27:24;99076.98;;;13.82;88.23
59877;BME280;45749;51.140;17.184;2022-09-17T11:30:17;99077.99;;;13.89;87.74
59877;BME280;45749;51.140;17.184;2022-09-17T11:35:44;99067.73;;;14.11;88.06
59877;BME280;45749;51.140;17.184;2022-09-17T11:38:18;99057.14;;;14.19;87.73
59877;BME280;45749;51.140;17.184;2022-09-17T11:40:59;99063.45;;;14.22;87.06
59877;BME280;45749;51.140;17.184;2022-09-17T11:43:28;99058.61;;;14.21;86.72
59877;BME280;45749;51.140;17.184;2022-09-17T11:51:35;99054.48;;;14.19;86.52
59877;BME280;45749;51.140;17.184;2022-09-17T11:54:19;99058.62;;;14.17;86.47
59877;BME280;45749;51.140;17.184;2022-09-17T11:56:57;99052.66;;;14.15;86.84
59877;BME280;45749;51.140;17.184;2022-09-17T11:59:58;99051.81;;;14.15;86.24
59877;BME280;45749;51.140;17.184;2022-09-17T12:02:51;99041.55;;;14.16;86.56
59877;BME280;45749;51.140;17.184;2022-09-17T12:05:42;99046.84;;;14.24;87.43
59877;BME280;45749;51.140;17.184;2022-09-17T12:08:20;99039.06;;;14.39;86.81
59877;BME280;45749;51.140;17.184;2022-09-17T12:11:00;99030.25;;;14.46;86.07
59877;BME280;45749;51.140;17.184;2022-09-17T12:13:55;99021.95;;;14.49;84.86
59877;BME280;45749;51.140;17.184;2022-09-17T12:16:37;99017.17;;;14.53;85.46
59877;BME280;45749;51.140;17.184;2022-09-17T12:21:48;99012.80;;;14.76;84.46
59877;BME280;45749;51.140;17.184;2022-09-17T12:24:21;99009.30;;;14.80;82.96
59877;BME280;45749;51.140;17.184;2022-09-17T12:27:32;99010.63;;;14.80;83.23
59877;BME280;45749;51.140;17.184;2022-09-17T12:30:18;99008.98;;;14.79;83.53
59877;BME280;45749;51.140;17.184;2022-09-17T12:41:41;99017.61;;;14.77;83.98
59877;BME280;45749;51.140;17.184;2022-09-17T12:44:18;99007.84;;;14.77;84.02
59877;BME280;45749;51.140;17.184;2022-09-17T12:56:32;99006.65;;;14.80;83.74
59877;BME280;45749;51.140;17.184;2022-09-17T13:04:42;98979.77;;;14.87;84.80
59877;BME280;45749;51.140;17.184;2022-09-17T13:07:32;98972.42;;;14.97;84.09
59877;BME280;45749;51.140;17.184;2022-09-17T13:10:21;98969.55;;;15.03;83.73
59877;BME280;45749;51.140;17.184;2022-09-17T13:16:02;98966.39;;;15.08;82.95
59877;BME280;45749;51.140;17.184;2022-09-17T13:18:53;98962.22;;;15.09;82.51
59877;BME280;45749;51.140;17.184;2022-09-17T13:21:59;98963.05;;;15.10;82.46
59877;BME280;45749;51.140;17.184;2022-09-17T13:24:16;98960.23;;;15.11;82.63
59877;BME280;45749;51.140;17.184;2022-09-17T13:26:48;98958.72;;;15.13;82.23
59877;BME280;45749;51.140;17.184;2022-09-17T13:40:35;98976.59;;;14.84;84.12
59877;BME280;45749;51.140;17.184;2022-09-17T13:48:30;98975.95;;;14.82;85.14
59877;BME280;45749;51.140;17.184;2022-09-17T13:54:00;98971.42;;;14.90;85.96
59877;BME280;45749;51.140;17.184;2022-09-17T13:56:46;98967.95;;;14.90;85.07
59877;BME280;45749;51.140;17.184;2022-09-17T13:59:22;98962.98;;;14.91;85.10
59877;BME280;45749;51.140;17.184;2022-09-17T14:01:58;98963.64;;;14.89;84.61
59877;BME280;45749;51.140;17.184;2022-09-17T14:21:22;98970.86;;;14.47;82.08
59877;BME280;45749;51.140;17.184;2022-09-17T14:23:54;98968.25;;;14.35;82.40
59877;BME280;45749;51.140;17.184;2022-09-17T14:31:55;98964.45;;;14.13;84.36
59877;BME280;45749;51.140;17.184;2022-09-17T14:34:23;98965.28;;;14.14;84.51
59877;BME280;45749;51.140;17.184;2022-09-17T14:36:51;98965.95;;;14.12;84.45
59877;BME280;45749;51.140;17.184;2022-09-17T14:39:28;98962.31;;;14.08;84.52
59877;BME280;45749;51.140;17.184;2022-09-17T14:41:53;98955.01;;;14.06;84.93
59877;BME280;45749;51.140;17.184;2022-09-17T14:44:26;98950.69;;;14.14;85.83
59877;BME280;45749;51.140;17.184;2022-09-17T14:47:06;98950.03;;;14.16;86.00
59877;BME280;45749;51.140;17.184;2022-09-17T14:49:36;98955.66;;;14.17;86.42
59877;BME280;45749;51.140;17.184;2022-09-17T14:55:14;98970.73;;;14.20;86.55
59877;BME280;45749;51.140;17.184;2022-09-17T14:57:54;98969.09;;;14.19;86.63
59877;BME280;45749;51.140;17.184;2022-09-17T15:00:27;98963.95;;;14.22;87.05
59877;BME280;45749;51.140;17.184;2022-09-17T15:02:54;98957.47;;;14.24;87.12
59877;BME280;45749;51.140;17.184;2022-09-17T15:05:34;98952.34;;;14.23;87.56
59877;BME280;45749;51.140;17.184;2022-09-17T15:13:36;98960.95;;;14.29;87.59
59877;BME280;45749;51.140;17.184;2022-09-17T15:16:25;98955.31;;;14.32;87.72
59877;BME280;45749;51.140;17.184;2022-09-17T15:18:54;98962.59;;;14.34;87.45
59877;BME280;45749;51.140;17.184;2022-09-17T15:21:33;98967.91;;;14.38;87.49
59877;BME280;45749;51.140;17.184;2022-09-17T15:24:31;98973.55;;;14.39;87.41
59877;BME280;45749;51.140;17.184;2022-09-17T15:28:16;98979.02;;;14.42;87.53
59877;BME280;45749;51.140;17.184;2022-09-17T15:32:27;98971.70;;;14.44;87.16
59877;BME280;45749;51.140;17.184;2022-09-17T15:37:50;98972.38;;;14.42;87.32
59877;BME280;45749;51.140;17.184;2022-09-17T15:40:39;98975.36;;;14.43;87.46
59877;BME280;45749;51.140;17.184;2022-09-17T15:45:54;98973.55;;;14.39;86.10
59877;BME280;45749;51.140;17.184;2022-09-17T15:51:01;98988.80;;;14.33;86.34
59877;BME280;45749;51.140;17.184;2022-09-17T15:53:29;99004.25;;;14.25;86.70
59877;BME280;45749;51.140;17.184;2022-09-17T15:56:15;99025.63;;;14.16;86.79
59877;BME280;45749;51.140;17.184;2022-09-17T16:09:00;99021.20;;;13.37;88.51
59877;BME280;45749;51.140;17.184;2022-09-17T16:11:29;99015.17;;;13.23;88.11
59877;BME280;45749;51.140;17.184;2022-09-17T16:13:57;99008.17;;;13.13;88.73
59877;BME280;45749;51.140;17.184;2022-09-17T16:16:33;99009.81;;;13.06;88.61
59877;BME280;45749;51.140;17.184;2022-09-17T16:19:03;99018.71;;;13.01;88.93
59877;BME280;45749;51.140;17.184;2022-09-17T16:21:30;99024.32;;;12.98;89.50
59877;BME280;45749;51.140;17.184;2022-09-17T16:23:57;99030.11;;;12.98;89.83
59877;BME280;45749;51.140;17.184;2022-09-17T16:26:29;99032.91;;;12.96;90.00
59877;BME280;45749;51.140;17.184;2022-09-17T16:28:59;99042.84;;;12.94;89.71
59877;BME280;45749;51.140;17.184;2022-09-17T16:31:31;99036.20;;;12.90;90.28
59877;BME280;45749;51.140;17.184;2022-09-17T16:33:57;99032.56;;;12.91;90.47
59877;BME280;45749;51.140;17.184;2022-09-17T16:36:23;99032.56;;;12.91;90.59
59877;BME280;45749;51.140;17.184;2022-09-17T16:38:49;99030.24;;;12.92;90.60
59877;BME280;45749;51.140;17.184;2022-09-17T16:41:15;99028.28;;;12.94;90.79
59877;BME280;45749;51.140;17.184;2022-09-17T16:43:41;99029.25;;;12.93;90.56
59877;BME280;45749;51.140;17.184;2022-09-17T16:46:09;99022.62;;;12.93;90.80
59877;BME280;45749;51.140;17.184;2022-09-17T16:48:35;99022.48;;;12.95;91.01
59877;BME280;45749;51.140;17.184;2022-09-17T16:51:10;99025.64;;;12.98;91.07
59877;BME280;45749;51.140;17.184;2022-09-17T16:53:38;99031.63;;;13.00;91.08
59877;BME280;45749;51.140;17.184;2022-09-17T16:56:10;99038.07;;;13.02;91.12
59877;BME280;45749;51.140;17.184;2022-09-17T16:58:33;99034.92;;;13.02;91.08